sensor_id;sensor_type;location;lat;lon;timestamp;pressure;altitude;pressure_sealevel;temperature;humidity
11830;BME280;5972;42.134;24.718;2023-06-14T00:00:53;99303.53;;;21.18;100.00
11830;BME280;5972;42.134;24.718;2023-06-14T00:03:22;99301.66;;;21.15;100.00
11830;BME280;5972;42.134;24.718;2023-06-14T00:05:51;99300.91;;;21.11;100.00
11830;BME280;5972;42.134;24.718;2023-06-14T00:08:18;99298.16;;;21.11;100.00
11830;BME280;5972;42.134;24.718;2023-06-14T00:10:46;99301.81;;;21.04;100.00
11830;BME280;5972;42.134;24.718;2023-06-14T00:13:13;99300.25;;;21.03;100.00
11830;BME280;5972;42.134;24.718;2023-06-14T00:15:40;99302.28;;;20.99;100.00
11830;BME280;5972;42.134;24.718;2023-06-14T00:18:08;99301.97;;;20.94;100.00
11830;BME280;5972;42.134;24.718;2023-06-14T00:20:37;99304.63;;;21.01;100.00
11830;BME280;5972;42.134;24.718;2023-06-14T00:23:06;99299.88;;;21.01;100.00
11830;BME280;5972;42.134;24.718;2023-06-14T00:25:32;99303.41;;;21.02;100.00
11830;BME280;5972;42.134;24.718;2023-06-14T00:27:59;99294.44;;;20.98;100.00
11830;BME280;5972;42.134;24.718;2023-06-14T00:30:26;99296.81;;;20.96;100.00
11830;BME280;5972;42.134;24.718;2023-06-14T00:32:58;99299.22;;;20.94;100.00
11830;BME280;5972;42.134;24.718;2023-06-14T00:35:30;99302.47;;;20.89;100.00
11830;BME280;5972;42.134;24.718;2023-06-14T00:38:01;99297.44;;;20.84;100.00
11830;BME280;5972;42.134;24.718;2023-06-14T00:40:29;99269.78;;;20.67;100.00
11830;BME280;5972;42.134;24.718;2023-06-14T00:42:56;99289.66;;;20.79;100.00
11830;BME280;5972;42.134;24.718;2023-06-14T00:45:23;99294.38;;;20.78;100.00
11830;BME280;5972;42.134;24.718;2023-06-14T00:47:50;99286.19;;;20.74;100.00
11830;BME280;5972;42.134;24.718;2023-06-14T00:50:20;99286.25;;;20.71;100.00
11830;BME280;5972;42.134;24.718;2023-06-14T00:52:48;99285.88;;;20.69;100.00
11830;BME280;5972;42.134;24.718;2023-06-14T00:55:16;99273.50;;;20.57;100.00
11830;BME280;5972;42.134;24.718;2023-06-14T00:57:44;99291.78;;;20.67;100.00
11830;BME280;5972;42.134;24.718;2023-06-14T01:00:12;99288.78;;;20.58;100.00
11830;BME280;5972;42.134;24.718;2023-06-14T01:02:39;99286.34;;;20.64;100.00
11830;BME280;5972;42.134;24.718;2023-06-14T01:05:07;99288.16;;;20.74;100.00
11830;BME280;5972;42.134;24.718;2023-06-14T01:07:47;99282.25;;;20.75;100.00
11830;BME280;5972;42.134;24.718;2023-06-14T01:10:29;99284.94;;;20.79;100.00
11830;BME280;5972;42.134;24.718;2023-06-14T01:13:08;99274.06;;;20.72;100.00
11830;BME280;5972;42.134;24.718;2023-06-14T01:15:38;99284.28;;;20.71;100.00
11830;BME280;5972;42.134;24.718;2023-06-14T01:18:05;99280.16;;;20.60;100.00
11830;BME280;5972;42.134;24.718;2023-06-14T01:20:33;99290.72;;;20.61;100.00
11830;BME280;5972;42.134;24.718;2023-06-14T01:23:03;99284.84;;;20.59;100.00
11830;BME280;5972;42.134;24.718;2023-06-14T01:25:30;99284.00;;;20.62;100.00
11830;BME280;5972;42.134;24.718;2023-06-14T01:27:58;99284.84;;;20.59;100.00
11830;BME280;5972;42.134;24.718;2023-06-14T01:30:27;99287.75;;;20.75;100.00
11830;BME280;5972;42.134;24.718;2023-06-14T01:32:56;99289.38;;;20.73;100.00
11830;BME280;5972;42.134;24.718;2023-06-14T01:35:23;99287.75;;;20.75;100.00
11830;BME280;5972;42.134;24.718;2023-06-14T01:37:51;99285.16;;;20.65;100.00
11830;BME280;5972;42.134;24.718;2023-06-14T01:40:20;99290.66;;;20.65;100.00
11830;BME280;5972;42.134;24.718;2023-06-14T01:42:49;99284.75;;;20.66;100.00
11830;BME280;5972;42.134;24.718;2023-06-14T01:45:18;99292.72;;;20.57;100.00
11830;BME280;5972;42.134;24.718;2023-06-14T01:47:46;99288.38;;;20.60;100.00
11830;BME280;5972;42.134;24.718;2023-06-14T01:50:13;99285.09;;;20.68;100.00
11830;BME280;5972;42.134;24.718;2023-06-14T01:52:40;99286.66;;;20.69;100.00
11830;BME280;5972;42.134;24.718;2023-06-14T01:55:13;99276.84;;;20.68;100.00
11830;BME280;5972;42.134;24.718;2023-06-14T01:57:41;99287.44;;;20.70;100.00
11830;BME280;5972;42.134;24.718;2023-06-14T02:00:08;99273.59;;;20.77;100.00
11830;BME280;5972;42.134;24.718;2023-06-14T02:02:38;99279.88;;;20.78;100.00
11830;BME280;5972;42.134;24.718;2023-06-14T02:05:05;99277.91;;;20.78;100.00
11830;BME280;5972;42.134;24.718;2023-06-14T02:07:32;99282.00;;;20.66;100.00
11830;BME280;5972;42.134;24.718;2023-06-14T02:10:06;99289.22;;;20.80;100.00
11830;BME280;5972;42.134;24.718;2023-06-14T02:12:32;99285.66;;;20.83;100.00
11830;BME280;5972;42.134;24.718;2023-06-14T02:15:01;99283.41;;;20.78;100.00
11830;BME280;5972;42.134;24.718;2023-06-14T02:17:29;99286.00;;;20.85;100.00
11830;BME280;5972;42.134;24.718;2023-06-14T02:19:56;99253.06;;;20.58;100.00
11830;BME280;5972;42.134;24.718;2023-06-14T02:22:24;99272.25;;;20.62;100.00
11830;BME280;5972;42.134;24.718;2023-06-14T02:24:50;99285.41;;;20.74;100.00
11830;BME280;5972;42.134;24.718;2023-06-14T02:27:17;99285.41;;;20.74;100.00
11830;BME280;5972;42.134;24.718;2023-06-14T02:29:44;99297.97;;;20.75;100.00
11830;BME280;5972;42.134;24.718;2023-06-14T02:32:12;99296.38;;;20.78;100.00
11830;BME280;5972;42.134;24.718;2023-06-14T02:34:48;99290.88;;;20.78;100.00
11830;BME280;5972;42.134;24.718;2023-06-14T02:37:15;99281.53;;;20.71;100.00
11830;BME280;5972;42.134;24.718;2023-06-14T02:39:42;99290.91;;;20.74;100.00
11830;BME280;5972;42.134;24.718;2023-06-14T02:42:09;99288.22;;;20.70;100.00
11830;BME280;5972;42.134;24.718;2023-06-14T02:44:36;99296.47;;;20.70;100.00
11830;BME280;5972;42.134;24.718;2023-06-14T02:47:03;99294.03;;;20.76;100.00
11830;BME280;5972;42.134;24.718;2023-06-14T02:49:32;99294.25;;;20.85;100.00
11830;BME280;5972;42.134;24.718;2023-06-14T02:51:58;99297.47;;;20.80;100.00
11830;BME280;5972;42.134;24.718;2023-06-14T02:54:25;99298.75;;;20.75;100.00
11830;BME280;5972;42.134;24.718;2023-06-14T02:56:52;99301.13;;;20.73;100.00
11830;BME280;5972;42.134;24.718;2023-06-14T02:59:19;99300.09;;;20.64;100.00
11830;BME280;5972;42.134;24.718;2023-06-14T03:01:46;99304.91;;;20.56;100.00
11830;BME280;5972;42.134;24.718;2023-06-14T03:04:13;99304.69;;;20.47;100.00
11830;BME280;5972;42.134;24.718;2023-06-14T03:06:42;99307.00;;;20.49;100.00
11830;BME280;5972;42.134;24.718;2023-06-14T03:09:15;99307.34;;;20.51;100.00
11830;BME280;5972;42.134;24.718;2023-06-14T03:11:42;99315.09;;;20.59;100.00
11830;BME280;5972;42.134;24.718;2023-06-14T03:14:09;99317.13;;;20.55;100.00
11830;BME280;5972;42.134;24.718;2023-06-14T03:16:36;99319.56;;;20.50;100.00
11830;BME280;5972;42.134;24.718;2023-06-14T03:19:03;99328.69;;;20.43;100.00
11830;BME280;5972;42.134;24.718;2023-06-14T03:21:30;99326.75;;;20.40;100.00
11830;BME280;5972;42.134;24.718;2023-06-14T03:23:59;99332.22;;;20.44;100.00
11830;BME280;5972;42.134;24.718;2023-06-14T03:26:26;99328.16;;;20.52;100.00
11830;BME280;5972;42.134;24.718;2023-06-14T03:28:53;99325.72;;;20.57;100.00
11830;BME280;5972;42.134;24.718;2023-06-14T03:31:20;99329.09;;;20.68;100.00
11830;BME280;5972;42.134;24.718;2023-06-14T03:33:48;99336.03;;;20.77;100.00
11830;BME280;5972;42.134;24.718;2023-06-14T03:36:15;99325.28;;;20.86;100.00
11830;BME280;5972;42.134;24.718;2023-06-14T03:38:43;99341.44;;;20.84;100.00
11830;BME280;5972;42.134;24.718;2023-06-14T03:41:11;99335.47;;;20.89;100.00
11830;BME280;5972;42.134;24.718;2023-06-14T03:43:38;99333.50;;;20.89;100.00
11830;BME280;5972;42.134;24.718;2023-06-14T03:46:04;99353.34;;;21.00;100.00
11830;BME280;5972;42.134;24.718;2023-06-14T03:48:31;99354.19;;;20.97;100.00
11830;BME280;5972;42.134;24.718;2023-06-14T03:50:58;99365.28;;;20.90;100.00
11830;BME280;5972;42.134;24.718;2023-06-14T03:53:25;99362.84;;;20.96;100.00
11830;BME280;5972;42.134;24.718;2023-06-14T03:55:53;99363.13;;;21.01;100.00
11830;BME280;5972;42.134;24.718;2023-06-14T03:58:22;99360.75;;;21.03;100.00
11830;BME280;5972;42.134;24.718;2023-06-14T04:00:49;99351.09;;;20.95;100.00
11830;BME280;5972;42.134;24.718;2023-06-14T04:03:15;99371.69;;;21.07;100.00
11830;BME280;5972;42.134;24.718;2023-06-14T04:05:42;99364.19;;;21.11;100.00
11830;BME280;5972;42.134;24.718;2023-06-14T04:08:09;99364.84;;;21.19;100.00
11830;BME280;5972;42.134;24.718;2023-06-14T04:10:39;99357.44;;;21.15;100.00
11830;BME280;5972;42.134;24.718;2023-06-14T04:13:06;99365.38;;;21.10;100.00
11830;BME280;5972;42.134;24.718;2023-06-14T04:15:34;99365.75;;;21.12;100.00
11830;BME280;5972;42.134;24.718;2023-06-14T04:18:02;99370.63;;;21.28;100.00
11830;BME280;5972;42.134;24.718;2023-06-14T04:20:29;99366.38;;;21.23;100.00
11830;BME280;5972;42.134;24.718;2023-06-14T04:22:56;99373.72;;;21.30;100.00
11830;BME280;5972;42.134;24.718;2023-06-14T04:25:23;99376.03;;;21.31;100.00
11830;BME280;5972;42.134;24.718;2023-06-14T04:27:51;99373.84;;;21.23;100.00
11830;BME280;5972;42.134;24.718;2023-06-14T04:30:18;99379.47;;;21.39;100.00
11830;BME280;5972;42.134;24.718;2023-06-14T04:32:48;99377.13;;;21.37;100.00
11830;BME280;5972;42.134;24.718;2023-06-14T04:35:15;99350.91;;;21.29;100.00
11830;BME280;5972;42.134;24.718;2023-06-14T04:37:42;99381.03;;;21.40;100.00
11830;BME280;5972;42.134;24.718;2023-06-14T04:40:11;99377.22;;;21.53;100.00
11830;BME280;5972;42.134;24.718;2023-06-14T04:42:37;99389.59;;;21.65;100.00
11830;BME280;5972;42.134;24.718;2023-06-14T04:45:07;99384.03;;;21.69;100.00
11830;BME280;5972;42.134;24.718;2023-06-14T04:47:34;99383.13;;;21.75;100.00
11830;BME280;5972;42.134;24.718;2023-06-14T04:50:04;99392.59;;;21.94;100.00
11830;BME280;5972;42.134;24.718;2023-06-14T04:52:31;99393.25;;;22.02;100.00
11830;BME280;5972;42.134;24.718;2023-06-14T04:54:58;99388.97;;;22.01;100.00
11830;BME280;5972;42.134;24.718;2023-06-14T04:57:25;99391.28;;;22.02;100.00
11830;BME280;5972;42.134;24.718;2023-06-14T04:59:52;99392.00;;;22.06;100.00
11830;BME280;5972;42.134;24.718;2023-06-14T05:02:21;99394.56;;;22.17;100.00
11830;BME280;5972;42.134;24.718;2023-06-14T05:04:48;99395.63;;;22.23;100.00
11830;BME280;5972;42.134;24.718;2023-06-14T05:07:16;99391.22;;;22.25;100.00
11830;BME280;5972;42.134;24.718;2023-06-14T05:09:44;99380.88;;;22.29;100.00
11830;BME280;5972;42.134;24.718;2023-06-14T05:12:11;99384.63;;;22.39;100.00
11830;BME280;5972;42.134;24.718;2023-06-14T05:14:38;99393.78;;;22.52;100.00
11830;BME280;5972;42.134;24.718;2023-06-14T05:17:05;99392.25;;;22.51;100.00
11830;BME280;5972;42.134;24.718;2023-06-14T05:19:32;99406.72;;;22.75;100.00
11830;BME280;5972;42.134;24.718;2023-06-14T05:22:06;99415.84;;;22.72;100.00
11830;BME280;5972;42.134;24.718;2023-06-14T05:24:35;99419.00;;;22.90;100.00
11830;BME280;5972;42.134;24.718;2023-06-14T05:27:02;99417.34;;;22.93;100.00
11830;BME280;5972;42.134;24.718;2023-06-14T05:29:28;99430.06;;;23.06;100.00
11830;BME280;5972;42.134;24.718;2023-06-14T05:31:55;99429.34;;;23.18;100.00
11830;BME280;5972;42.134;24.718;2023-06-14T05:34:22;99425.63;;;23.25;100.00
11830;BME280;5972;42.134;24.718;2023-06-14T05:36:49;99426.69;;;23.31;100.00
11830;BME280;5972;42.134;24.718;2023-06-14T05:39:16;99425.47;;;23.32;100.00
11830;BME280;5972;42.134;24.718;2023-06-14T05:41:44;99429.84;;;23.30;100.00
11830;BME280;5972;42.134;24.718;2023-06-14T05:44:10;99435.91;;;23.41;100.00
11830;BME280;5972;42.134;24.718;2023-06-14T05:46:37;99441.63;;;23.34;100.00
11830;BME280;5972;42.134;24.718;2023-06-14T05:49:05;99434.28;;;23.11;100.00
11830;BME280;5972;42.134;24.718;2023-06-14T05:51:32;99443.41;;;23.08;100.00
11830;BME280;5972;42.134;24.718;2023-06-14T05:53:59;99440.84;;;23.17;100.00
11830;BME280;5972;42.134;24.718;2023-06-14T05:56:26;99442.47;;;23.31;100.00
11830;BME280;5972;42.134;24.718;2023-06-14T05:58:54;99445.56;;;23.16;100.00
11830;BME280;5972;42.134;24.718;2023-06-14T06:01:21;99448.66;;;23.18;100.00
11830;BME280;5972;42.134;24.718;2023-06-14T06:03:48;99438.50;;;23.32;100.00
11830;BME280;5972;42.134;24.718;2023-06-14T06:06:15;99444.63;;;23.39;100.00
11830;BME280;5972;42.134;24.718;2023-06-14T06:08:42;99424.28;;;23.49;100.00
11830;BME280;5972;42.134;24.718;2023-06-14T06:11:09;99442.41;;;23.67;100.00
11830;BME280;5972;42.134;24.718;2023-06-14T06:13:36;99425.75;;;23.54;100.00
11830;BME280;5972;42.134;24.718;2023-06-14T06:16:05;99430.66;;;23.46;100.00
11830;BME280;5972;42.134;24.718;2023-06-14T06:18:32;99440.22;;;23.58;100.00
11830;BME280;5972;42.134;24.718;2023-06-14T06:20:59;99452.22;;;23.84;100.00
11830;BME280;5972;42.134;24.718;2023-06-14T06:23:26;99447.19;;;23.95;100.00
11830;BME280;5972;42.134;24.718;2023-06-14T06:25:53;99450.34;;;24.38;100.00
11830;BME280;5972;42.134;24.718;2023-06-14T06:28:20;99456.13;;;24.69;100.00
11830;BME280;5972;42.134;24.718;2023-06-14T06:30:46;99456.28;;;24.91;100.00
11830;BME280;5972;42.134;24.718;2023-06-14T06:33:14;99453.09;;;25.05;100.00
11830;BME280;5972;42.134;24.718;2023-06-14T06:35:41;99459.66;;;25.24;100.00
11830;BME280;5972;42.134;24.718;2023-06-14T06:38:08;99467.94;;;24.99;100.00
11830;BME280;5972;42.134;24.718;2023-06-14T06:40:36;99459.13;;;24.62;100.00
11830;BME280;5972;42.134;24.718;2023-06-14T06:43:03;99466.38;;;24.85;100.00
11830;BME280;5972;42.134;24.718;2023-06-14T06:45:30;99470.06;;;25.07;100.00
11830;BME280;5972;42.134;24.718;2023-06-14T06:47:57;99458.19;;;25.19;100.00
11830;BME280;5972;42.134;24.718;2023-06-14T06:50:25;99471.91;;;25.61;100.00
11830;BME280;5972;42.134;24.718;2023-06-14T06:52:52;99473.97;;;25.70;100.00
11830;BME280;5972;42.134;24.718;2023-06-14T06:55:20;99473.75;;;25.77;100.00
11830;BME280;5972;42.134;24.718;2023-06-14T06:57:46;99477.31;;;25.64;100.00
11830;BME280;5972;42.134;24.718;2023-06-14T07:00:15;99475.66;;;25.54;100.00
11830;BME280;5972;42.134;24.718;2023-06-14T07:02:43;99471.13;;;25.48;100.00
11830;BME280;5972;42.134;24.718;2023-06-14T07:05:09;99471.38;;;25.41;100.00
11830;BME280;5972;42.134;24.718;2023-06-14T07:07:38;99470.81;;;25.33;100.00
11830;BME280;5972;42.134;24.718;2023-06-14T07:10:06;99464.94;;;25.44;100.00
11830;BME280;5972;42.134;24.718;2023-06-14T07:12:33;99475.25;;;25.56;100.00
11830;BME280;5972;42.134;24.718;2023-06-14T07:15:05;99451.25;;;25.75;100.00
11830;BME280;5972;42.134;24.718;2023-06-14T07:17:32;99470.38;;;25.94;100.00
11830;BME280;5972;42.134;24.718;2023-06-14T07:19:59;99456.03;;;25.74;100.00
11830;BME280;5972;42.134;24.718;2023-06-14T07:22:37;99462.47;;;25.71;100.00
11830;BME280;5972;42.134;24.718;2023-06-14T07:25:04;99451.97;;;25.88;100.00
11830;BME280;5972;42.134;24.718;2023-06-14T07:27:32;99465.97;;;25.84;100.00
11830;BME280;5972;42.134;24.718;2023-06-14T07:29:58;99460.22;;;25.79;100.00
11830;BME280;5972;42.134;24.718;2023-06-14T07:32:26;99455.16;;;25.64;100.00
11830;BME280;5972;42.134;24.718;2023-06-14T07:34:59;99457.53;;;25.41;100.00
11830;BME280;5972;42.134;24.718;2023-06-14T07:37:27;99455.84;;;25.56;100.00
11830;BME280;5972;42.134;24.718;2023-06-14T07:39:55;99450.53;;;25.36;100.00
11830;BME280;5972;42.134;24.718;2023-06-14T07:42:22;99459.03;;;24.78;100.00
11830;BME280;5972;42.134;24.718;2023-06-14T07:44:48;99454.09;;;25.11;100.00
11830;BME280;5972;42.134;24.718;2023-06-14T07:47:16;99451.22;;;25.15;100.00
11830;BME280;5972;42.134;24.718;2023-06-14T07:49:43;99451.09;;;25.31;100.00
11830;BME280;5972;42.134;24.718;2023-06-14T07:52:09;99458.84;;;25.36;100.00
11830;BME280;5972;42.134;24.718;2023-06-14T07:54:37;99460.25;;;25.66;100.00
11830;BME280;5972;42.134;24.718;2023-06-14T07:57:05;99455.06;;;25.68;100.00
11830;BME280;5972;42.134;24.718;2023-06-14T07:59:32;99435.78;;;25.39;100.00
11830;BME280;5972;42.134;24.718;2023-06-14T08:01:59;99452.00;;;24.90;100.00
11830;BME280;5972;42.134;24.718;2023-06-14T08:04:26;99454.06;;;24.86;100.00
11830;BME280;5972;42.134;24.718;2023-06-14T08:06:53;99454.31;;;24.92;100.00
11830;BME280;5972;42.134;24.718;2023-06-14T08:09:20;99460.94;;;25.19;100.00
11830;BME280;5972;42.134;24.718;2023-06-14T08:11:52;99456.53;;;24.97;100.00
11830;BME280;5972;42.134;24.718;2023-06-14T08:14:21;99434.94;;;24.92;100.00
11830;BME280;5972;42.134;24.718;2023-06-14T08:16:47;99464.19;;;25.18;100.00
11830;BME280;5972;42.134;24.718;2023-06-14T08:19:14;99468.47;;;25.44;100.00
11830;BME280;5972;42.134;24.718;2023-06-14T08:21:58;99477.22;;;25.30;100.00
11830;BME280;5972;42.134;24.718;2023-06-14T08:24:25;99475.25;;;25.56;100.00
11830;BME280;5972;42.134;24.718;2023-06-14T08:26:53;99480.56;;;25.63;100.00
11830;BME280;5972;42.134;24.718;2023-06-14T08:29:21;99473.00;;;25.63;100.00
11830;BME280;5972;42.134;24.718;2023-06-14T08:31:48;99487.00;;;25.35;100.00
11830;BME280;5972;42.134;24.718;2023-06-14T08:34:15;99484.53;;;25.49;100.00
11830;BME280;5972;42.134;24.718;2023-06-14T08:36:42;99484.69;;;25.80;100.00
11830;BME280;5972;42.134;24.718;2023-06-14T08:39:09;99487.63;;;26.11;100.00
11830;BME280;5972;42.134;24.718;2023-06-14T08:41:35;99492.13;;;26.18;100.00
11830;BME280;5972;42.134;24.718;2023-06-14T08:44:03;99497.09;;;26.35;100.00
11830;BME280;5972;42.134;24.718;2023-06-14T08:46:32;99498.75;;;26.55;99.71
11830;BME280;5972;42.134;24.718;2023-06-14T08:49:01;99493.63;;;26.97;98.42
11830;BME280;5972;42.134;24.718;2023-06-14T08:51:31;99502.97;;;27.21;92.79
11830;BME280;5972;42.134;24.718;2023-06-14T08:54:00;99501.22;;;27.45;88.92
11830;BME280;5972;42.134;24.718;2023-06-14T08:56:28;99491.00;;;26.49;91.85
11830;BME280;5972;42.134;24.718;2023-06-14T08:58:55;99497.06;;;26.79;95.29
11830;BME280;5972;42.134;24.718;2023-06-14T09:01:23;99496.13;;;27.04;92.87
11830;BME280;5972;42.134;24.718;2023-06-14T09:03:51;99498.88;;;27.35;86.34
11830;BME280;5972;42.134;24.718;2023-06-14T09:06:20;99501.75;;;27.22;85.08
11830;BME280;5972;42.134;24.718;2023-06-14T09:08:48;99497.78;;;27.32;83.66
11830;BME280;5972;42.134;24.718;2023-06-14T09:11:16;99489.19;;;27.48;82.91
11830;BME280;5972;42.134;24.718;2023-06-14T09:13:44;99496.66;;;27.60;79.81
11830;BME280;5972;42.134;24.718;2023-06-14T09:16:12;99479.63;;;27.49;80.59
11830;BME280;5972;42.134;24.718;2023-06-14T09:18:40;99486.81;;;27.68;78.11
11830;BME280;5972;42.134;24.718;2023-06-14T09:21:11;99485.94;;;27.50;79.04
11830;BME280;5972;42.134;24.718;2023-06-14T09:23:39;99493.44;;;27.31;81.12
11830;BME280;5972;42.134;24.718;2023-06-14T09:26:09;99476.22;;;27.05;83.03
11830;BME280;5972;42.134;24.718;2023-06-14T09:28:37;99480.13;;;27.08;84.24
11830;BME280;5972;42.134;24.718;2023-06-14T09:31:07;99469.19;;;26.61;89.38
11830;BME280;5972;42.134;24.718;2023-06-14T09:33:35;99456.09;;;26.18;92.53
11830;BME280;5972;42.134;24.718;2023-06-14T09:36:03;99470.78;;;25.71;97.67
11830;BME280;5972;42.134;24.718;2023-06-14T09:38:32;99467.19;;;25.83;99.30
11830;BME280;5972;42.134;24.718;2023-06-14T09:41:08;99469.63;;;25.81;96.78
11830;BME280;5972;42.134;24.718;2023-06-14T09:43:35;99470.31;;;25.85;96.79
11830;BME280;5972;42.134;24.718;2023-06-14T09:46:03;99467.63;;;25.82;95.37
11830;BME280;5972;42.134;24.718;2023-06-14T09:48:31;99462.59;;;26.02;94.81
11830;BME280;5972;42.134;24.718;2023-06-14T09:50:58;99469.81;;;26.21;90.70
11830;BME280;5972;42.134;24.718;2023-06-14T09:53:26;99467.72;;;26.47;90.97
11830;BME280;5972;42.134;24.718;2023-06-14T09:55:57;99464.75;;;26.63;92.32
11830;BME280;5972;42.134;24.718;2023-06-14T09:58:26;99462.53;;;26.80;87.11
11830;BME280;5972;42.134;24.718;2023-06-14T10:00:55;99459.38;;;26.69;87.37
11830;BME280;5972;42.134;24.718;2023-06-14T10:03:26;99454.50;;;26.51;99.65
11830;BME280;5972;42.134;24.718;2023-06-14T10:05:55;99447.94;;;26.36;100.00
11830;BME280;5972;42.134;24.718;2023-06-14T10:08:27;99452.59;;;26.48;100.00
11830;BME280;5972;42.134;24.718;2023-06-14T10:10:59;99449.22;;;26.75;100.00
11830;BME280;5972;42.134;24.718;2023-06-14T10:13:28;99450.91;;;26.72;97.20
11830;BME280;5972;42.134;24.718;2023-06-14T10:16:02;99446.84;;;26.64;94.36
11830;BME280;5972;42.134;24.718;2023-06-14T10:18:38;99438.50;;;26.64;100.00
11830;BME280;5972;42.134;24.718;2023-06-14T10:21:16;99448.81;;;26.85;100.00
11830;BME280;5972;42.134;24.718;2023-06-14T10:23:46;99438.50;;;26.86;100.00
11830;BME280;5972;42.134;24.718;2023-06-14T10:26:19;99439.63;;;27.47;92.71
11830;BME280;5972;42.134;24.718;2023-06-14T10:28:56;99439.78;;;26.94;90.99
11830;BME280;5972;42.134;24.718;2023-06-14T10:31:39;99434.91;;;27.16;88.42
11830;BME280;5972;42.134;24.718;2023-06-14T10:34:06;99439.41;;;27.23;90.44
11830;BME280;5972;42.134;24.718;2023-06-14T10:36:33;99429.53;;;27.22;91.40
11830;BME280;5972;42.134;24.718;2023-06-14T10:39:04;99433.34;;;27.55;89.99
11830;BME280;5972;42.134;24.718;2023-06-14T10:41:35;99432.28;;;27.98;86.24
11830;BME280;5972;42.134;24.718;2023-06-14T10:46:52;99417.50;;;28.62;82.57
11830;BME280;5972;42.134;24.718;2023-06-14T10:49:20;99431.56;;;28.76;83.79
11830;BME280;5972;42.134;24.718;2023-06-14T10:51:50;99428.38;;;29.02;78.91
11830;BME280;5972;42.134;24.718;2023-06-14T10:54:20;99424.69;;;28.96;71.41
11830;BME280;5972;42.134;24.718;2023-06-14T10:56:52;99426.59;;;28.71;71.60
11830;BME280;5972;42.134;24.718;2023-06-14T10:59:20;99413.63;;;28.59;74.48
11830;BME280;5972;42.134;24.718;2023-06-14T11:01:56;99420.72;;;28.78;74.31
11830;BME280;5972;42.134;24.718;2023-06-14T11:04:31;99420.28;;;28.80;78.08
11830;BME280;5972;42.134;24.718;2023-06-14T11:07:14;99409.34;;;28.49;74.07
11830;BME280;5972;42.134;24.718;2023-06-14T11:10:05;99420.06;;;28.32;76.74
11830;BME280;5972;42.134;24.718;2023-06-14T11:12:38;99414.81;;;27.98;77.81
11830;BME280;5972;42.134;24.718;2023-06-14T11:15:08;99403.97;;;28.45;76.45
11830;BME280;5972;42.134;24.718;2023-06-14T11:17:35;99410.91;;;28.50;70.23
11830;BME280;5972;42.134;24.718;2023-06-14T11:20:08;99410.00;;;28.35;65.55
11830;BME280;5972;42.134;24.718;2023-06-14T11:22:39;99398.59;;;28.15;67.81
11830;BME280;5972;42.134;24.718;2023-06-14T11:25:08;99401.69;;;28.07;69.49
11830;BME280;5972;42.134;24.718;2023-06-14T11:27:35;99393.50;;;27.95;70.99
11830;BME280;5972;42.134;24.718;2023-06-14T11:30:07;99379.44;;;27.62;70.77
11830;BME280;5972;42.134;24.718;2023-06-14T11:32:35;99381.91;;;27.60;72.99
11830;BME280;5972;42.134;24.718;2023-06-14T11:35:02;99375.69;;;27.28;74.17
11830;BME280;5972;42.134;24.718;2023-06-14T11:37:30;99386.97;;;27.25;77.63
11830;BME280;5972;42.134;24.718;2023-06-14T11:39:58;99379.91;;;27.60;80.11
11830;BME280;5972;42.134;24.718;2023-06-14T11:42:27;99391.31;;;27.53;75.52
11830;BME280;5972;42.134;24.718;2023-06-14T11:44:54;99384.34;;;27.30;79.63
11830;BME280;5972;42.134;24.718;2023-06-14T11:47:22;99370.28;;;27.25;78.23
11830;BME280;5972;42.134;24.718;2023-06-14T11:49:49;99359.66;;;27.42;80.50
11830;BME280;5972;42.134;24.718;2023-06-14T11:52:18;99361.81;;;27.47;78.68
11830;BME280;5972;42.134;24.718;2023-06-14T11:54:47;99368.25;;;27.25;74.87
11830;BME280;5972;42.134;24.718;2023-06-14T11:57:14;99360.41;;;27.24;79.68
11830;BME280;5972;42.134;24.718;2023-06-14T11:59:41;99356.41;;;27.43;78.67
11830;BME280;5972;42.134;24.718;2023-06-14T12:02:09;99354.56;;;27.49;76.35
11830;BME280;5972;42.134;24.718;2023-06-14T12:04:40;99348.06;;;27.43;76.65
11830;BME280;5972;42.134;24.718;2023-06-14T12:07:11;99353.00;;;27.30;76.44
11830;BME280;5972;42.134;24.718;2023-06-14T12:09:40;99339.03;;;26.94;75.61
11830;BME280;5972;42.134;24.718;2023-06-14T12:12:09;99350.31;;;26.99;79.38
11830;BME280;5972;42.134;24.718;2023-06-14T12:14:36;99343.09;;;27.11;79.60
11830;BME280;5972;42.134;24.718;2023-06-14T12:17:04;99337.28;;;27.45;77.10
11830;BME280;5972;42.134;24.718;2023-06-14T12:19:32;99338.34;;;27.39;74.86
11830;BME280;5972;42.134;24.718;2023-06-14T12:22:00;99338.03;;;27.37;76.29
11830;BME280;5972;42.134;24.718;2023-06-14T12:24:30;99328.28;;;27.32;74.61
11830;BME280;5972;42.134;24.718;2023-06-14T12:26:58;99326.13;;;27.27;73.10
11830;BME280;5972;42.134;24.718;2023-06-14T12:29:25;99314.88;;;27.21;73.79
11830;BME280;5972;42.134;24.718;2023-06-14T12:31:52;99321.19;;;27.31;72.80
11830;BME280;5972;42.134;24.718;2023-06-14T12:34:27;99322.13;;;27.28;75.56
11830;BME280;5972;42.134;24.718;2023-06-14T12:36:54;99310.22;;;27.09;71.41
11830;BME280;5972;42.134;24.718;2023-06-14T12:39:22;99299.72;;;26.95;75.48
11830;BME280;5972;42.134;24.718;2023-06-14T12:41:50;99313.31;;;27.11;76.17
11830;BME280;5972;42.134;24.718;2023-06-14T12:44:17;99298.19;;;27.21;77.90
11830;BME280;5972;42.134;24.718;2023-06-14T12:46:43;99292.38;;;27.56;74.35
11830;BME280;5972;42.134;24.718;2023-06-14T12:49:11;99289.84;;;27.85;72.21
11830;BME280;5972;42.134;24.718;2023-06-14T12:51:40;99283.00;;;28.04;68.59
11830;BME280;5972;42.134;24.718;2023-06-14T12:54:23;99287.66;;;27.98;70.58
11830;BME280;5972;42.134;24.718;2023-06-14T12:56:51;99256.97;;;27.65;67.76
11830;BME280;5972;42.134;24.718;2023-06-14T12:59:18;99279.66;;;27.82;71.39
11830;BME280;5972;42.134;24.718;2023-06-14T13:01:45;99280.59;;;27.70;69.47